createdAt,value
2018-12-30T00:00:01.610Z,1.00
2018-12-30T00:02:50.749Z,1.55
2018-12-30T00:05:41.712Z,1.70
2018-12-30T00:08:30.806Z,1.00
2018-12-30T00:11:19.860Z,1.40
2018-12-30T00:14:08.933Z,2.50
2018-12-30T00:16:58.024Z,1.13
2018-12-30T00:19:47.090Z,2.05
2018-12-30T00:22:36.177Z,1.67
2018-12-30T00:25:25.247Z,1.47
2018-12-30T00:28:16.042Z,1.82
2018-12-30T00:31:05.103Z,1.23
2018-12-30T00:33:54.459Z,1.53
2018-12-30T00:36:43.523Z,2.33
2018-12-30T00:39:34.316Z,2.20
2018-12-30T00:42:23.371Z,1.00
2018-12-30T00:45:06.085Z,1.27
2018-12-30T00:47:55.157Z,1.60
2018-12-30T00:50:44.229Z,1.50
2018-12-30T00:53:33.292Z,1.23
2018-12-30T00:56:22.348Z,1.40
2018-12-30T00:59:11.431Z,1.43
2018-12-30T01:02:00.498Z,1.85
2018-12-30T01:04:49.590Z,1.85
2018-12-30T01:07:38.657Z,2.17
2018-12-30T01:10:27.721Z,0.77
2018-12-30T01:13:16.810Z,2.27
2018-12-30T01:16:05.895Z,1.27
2018-12-30T01:18:54.997Z,1.60
2018-12-30T01:21:45.804Z,2.47
2018-12-30T01:24:34.908Z,1.87
2018-12-30T01:27:06.410Z,1.27
2018-12-30T01:29:55.482Z,1.63
2018-12-30T01:32:44.552Z,2.58
2018-12-30T01:35:33.605Z,1.70
2018-12-30T01:38:22.718Z,1.35
2018-12-30T01:41:11.789Z,1.80
2018-12-30T01:44:00.851Z,1.23
2018-12-30T01:46:42.904Z,1.20
2018-12-30T01:49:32.211Z,1.05
2018-12-30T01:52:23.092Z,1.80
2018-12-30T01:55:12.452Z,2.17
2018-12-30T01:58:03.289Z,1.42
2018-12-30T02:00:52.462Z,1.00
2018-12-30T02:03:43.287Z,2.08
2018-12-30T02:06:32.596Z,2.20
2018-12-30T02:09:21.829Z,1.83
2018-12-30T02:12:10.873Z,1.77
2018-12-30T02:15:00.239Z,1.55
2018-12-30T02:20:45.040Z,1.77
2018-12-30T02:23:34.104Z,1.30
2018-12-30T02:26:23.160Z,1.43
2018-12-30T02:29:12.238Z,1.80
2018-12-30T02:32:01.387Z,1.22
2018-12-30T02:34:50.461Z,1.55
2018-12-30T02:37:39.514Z,1.50
2018-12-30T02:40:28.593Z,2.30
2018-12-30T02:43:17.649Z,1.50
2018-12-30T02:46:00.036Z,1.47
2018-12-30T02:48:49.417Z,1.80
2018-12-30T02:51:38.484Z,1.70
2018-12-30T02:54:29.314Z,1.40
2018-12-30T02:57:18.435Z,1.40
2018-12-30T03:03:22.844Z,1.90
2018-12-30T03:06:11.937Z,1.60
2018-12-30T03:12:12.265Z,2.33
2018-12-30T03:15:01.326Z,1.80
2018-12-30T03:17:50.386Z,0.90
2018-12-30T03:20:39.519Z,1.57
2018-12-30T03:23:28.579Z,0.88
2018-12-30T03:26:17.658Z,2.40
2018-12-30T03:29:13.488Z,1.55
2018-12-30T03:32:02.588Z,1.65
2018-12-30T03:34:51.650Z,2.35
2018-12-30T03:37:40.703Z,1.35
2018-12-30T03:40:29.765Z,1.52
2018-12-30T03:43:18.846Z,1.37
2018-12-30T03:46:00.781Z,1.67
2018-12-30T03:48:49.856Z,1.50
2018-12-30T03:51:39.057Z,1.80
2018-12-30T03:54:28.131Z,1.30
2018-12-30T03:57:17.183Z,1.50
2018-12-30T04:03:21.916Z,1.62
2018-12-30T04:06:10.985Z,1.20
2018-12-30T04:09:00.067Z,1.25
2018-12-30T04:11:49.260Z,1.50
2018-12-30T04:14:38.343Z,1.10
2018-12-30T04:17:27.473Z,1.98
2018-12-30T04:20:16.550Z,1.40
2018-12-30T04:23:05.961Z,1.25
2018-12-30T04:25:55.019Z,1.00
2018-12-30T04:28:44.102Z,1.42
2018-12-30T04:31:33.171Z,1.62
2018-12-30T04:34:22.230Z,1.12
2018-12-30T04:37:11.335Z,2.02
2018-12-30T04:40:00.397Z,1.25
2018-12-30T04:42:49.503Z,1.50
2018-12-30T04:45:38.547Z,3.17
2018-12-30T04:48:20.470Z,1.67
2018-12-30T04:51:09.553Z,1.37
2018-12-30T04:53:58.719Z,2.00
2018-12-30T04:56:47.774Z,1.70
2018-12-30T04:59:36.849Z,1.40
2018-12-30T05:02:25.960Z,1.32
2018-12-30T05:05:15.024Z,1.37
2018-12-30T05:08:04.099Z,1.82
2018-12-30T05:10:53.174Z,1.25
2018-12-30T05:13:42.226Z,1.22
2018-12-30T05:16:31.311Z,1.47
2018-12-30T05:19:20.382Z,1.87
2018-12-30T05:22:09.445Z,1.30
2018-12-30T05:24:58.795Z,1.52
2018-12-30T05:27:47.887Z,1.45
2018-12-30T05:30:36.976Z,1.15
2018-12-30T05:36:34.028Z,1.15
2018-12-30T05:39:23.064Z,2.75
2018-12-30T05:42:12.128Z,1.60
2018-12-30T05:45:01.532Z,1.47
2018-12-30T05:47:43.896Z,1.70
2018-12-30T05:50:32.936Z,0.93
2018-12-30T05:53:21.988Z,1.40
2018-12-30T05:56:11.059Z,1.72
2018-12-30T05:59:00.145Z,1.67
2018-12-30T06:01:49.201Z,1.20
2018-12-30T06:04:38.311Z,1.45
2018-12-30T06:07:27.383Z,1.80
2018-12-30T06:10:16.467Z,1.15
2018-12-30T06:13:05.610Z,1.32
2018-12-30T06:15:54.674Z,1.10
2018-12-30T06:18:43.757Z,1.47
2018-12-30T06:21:32.817Z,1.33
2018-12-30T06:24:21.900Z,1.07
2018-12-30T06:27:11.014Z,1.65
2018-12-30T06:30:00.161Z,1.67
2018-12-30T06:32:50.221Z,2.90
2018-12-30T06:35:40.046Z,1.30
2018-12-30T06:38:29.126Z,1.85
2018-12-30T06:41:18.187Z,2.08
2018-12-30T06:44:07.253Z,1.57
2018-12-30T06:46:49.519Z,1.03
2018-12-30T06:49:38.690Z,1.45
2018-12-30T06:52:27.756Z,1.42
2018-12-30T06:55:16.828Z,1.37
2018-12-30T06:58:05.931Z,1.20
2018-12-30T07:00:54.993Z,1.90
2018-12-30T07:03:44.195Z,1.42
2018-12-30T07:09:41.325Z,1.30
2018-12-30T07:12:30.396Z,1.37
2018-12-30T07:15:19.492Z,1.72
2018-12-30T07:18:08.583Z,1.57
2018-12-30T07:20:57.628Z,1.12
2018-12-30T07:23:46.698Z,1.30
2018-12-30T07:26:35.761Z,1.60
2018-12-30T07:29:24.820Z,1.90
2018-12-30T07:32:13.902Z,1.92
2018-12-30T07:35:02.984Z,0.70
2018-12-30T07:37:52.042Z,1.85
2018-12-30T07:40:41.116Z,1.37
2018-12-30T07:43:30.186Z,1.35
2018-12-30T07:46:19.270Z,1.72
2018-12-30T07:49:08.323Z,1.85
2018-12-30T07:51:57.666Z,1.17
2018-12-30T07:54:46.727Z,1.55
2018-12-30T07:57:35.795Z,1.00
2018-12-30T08:00:24.859Z,1.95
2018-12-30T08:03:14.040Z,1.85
2018-12-30T08:06:03.074Z,1.25
2018-12-30T08:08:52.173Z,1.15
2018-12-30T08:11:41.263Z,1.10
2018-12-30T08:17:26.227Z,0.95
2018-12-30T08:20:15.321Z,1.70
2018-12-30T08:23:04.396Z,1.35
2018-12-30T08:25:53.491Z,1.05
2018-12-30T08:28:42.671Z,1.50
2018-12-30T08:31:31.719Z,1.12
2018-12-30T08:34:20.778Z,1.57
2018-12-30T08:37:09.886Z,1.30
2018-12-30T08:39:58.906Z,1.70
2018-12-30T08:42:47.972Z,1.12
2018-12-30T08:45:37.051Z,1.12
2018-12-30T08:48:19.002Z,1.50
2018-12-30T08:51:08.060Z,1.40
2018-12-30T08:53:57.144Z,1.50
2018-12-30T08:56:46.222Z,1.37
2018-12-30T08:59:35.730Z,2.10
2018-12-30T09:02:24.787Z,1.10
2018-12-30T09:05:13.905Z,1.43
2018-12-30T09:08:02.944Z,1.03
2018-12-30T09:10:52.020Z,1.10
2018-12-30T09:13:41.071Z,1.07
2018-12-30T09:16:30.158Z,1.60
2018-12-30T09:19:19.569Z,1.53
2018-12-30T09:21:49.365Z,2.60
2018-12-30T09:24:38.422Z,1.37
2018-12-30T09:27:27.486Z,2.10
2018-12-30T09:30:16.553Z,1.40
2018-12-30T09:33:05.890Z,1.57
2018-12-30T09:35:54.973Z,1.40
2018-12-30T09:38:44.067Z,4.07
2018-12-30T09:41:33.111Z,1.77
2018-12-30T09:44:22.161Z,2.03
2018-12-30T09:47:12.013Z,2.00
2018-12-30T09:50:01.091Z,1.13
2018-12-30T09:52:50.138Z,2.23
2018-12-30T09:55:39.198Z,1.50
2018-12-30T09:58:28.526Z,1.47
2018-12-30T10:01:17.587Z,1.90
2018-12-30T10:04:06.656Z,1.77
2018-12-30T10:06:55.846Z,1.80
2018-12-30T10:09:44.925Z,2.23
2018-12-30T10:12:34.228Z,1.60
2018-12-30T10:15:23.294Z,1.60
2018-12-30T10:21:21.918Z,1.50
2018-12-30T10:24:11.018Z,1.30
2018-12-30T10:27:00.096Z,1.40
2018-12-30T10:29:49.204Z,1.40
2018-12-30T10:32:38.298Z,1.67
2018-12-30T10:35:27.384Z,1.90
2018-12-30T10:38:16.451Z,2.20
2018-12-30T10:41:05.529Z,2.50
2018-12-30T10:43:54.600Z,2.33
2018-12-30T10:46:43.684Z,1.60
2018-12-30T10:49:25.852Z,1.80
2018-12-30T10:52:14.947Z,1.67
2018-12-30T10:55:04.003Z,1.80
2018-12-30T10:57:53.065Z,2.03
2018-12-30T11:00:42.144Z,1.80
2018-12-30T11:03:31.709Z,2.67
2018-12-30T11:06:20.791Z,2.07
2018-12-30T11:09:09.950Z,3.37
2018-12-30T11:11:59.591Z,2.87
2018-12-30T11:14:48.631Z,3.30
2018-12-30T11:17:37.693Z,3.07
2018-12-30T11:20:26.821Z,3.37
2018-12-30T11:23:15.850Z,3.30
2018-12-30T11:26:04.962Z,3.27
2018-12-30T11:28:54.002Z,2.60
2018-12-30T11:31:43.073Z,2.50
2018-12-30T11:34:32.140Z,2.17
2018-12-30T11:37:21.242Z,2.40
2018-12-30T11:40:10.309Z,2.87
2018-12-30T11:42:59.387Z,2.30
2018-12-30T11:45:48.456Z,2.60
2018-12-30T11:48:30.390Z,2.13
2018-12-30T11:51:19.454Z,1.67
2018-12-30T11:54:16.221Z,2.57
2018-12-30T11:56:59.295Z,2.70
2018-12-30T11:59:48.478Z,2.33
2018-12-30T12:02:37.624Z,1.70
2018-12-30T12:05:26.681Z,1.63
2018-12-30T12:08:15.834Z,2.60
2018-12-30T12:11:04.896Z,3.17
2018-12-30T12:13:53.987Z,2.30
2018-12-30T12:16:43.054Z,2.20
2018-12-30T12:19:32.162Z,2.00
2018-12-30T12:22:21.397Z,1.80
2018-12-30T12:25:10.602Z,2.40
2018-12-30T12:27:59.688Z,2.03
2018-12-30T12:30:48.813Z,2.30
2018-12-30T12:33:37.888Z,2.40
2018-12-30T12:39:34.993Z,1.77
2018-12-30T12:42:24.167Z,1.73
2018-12-30T12:45:13.218Z,2.00
2018-12-30T12:48:02.328Z,2.50
2018-12-30T12:50:45.011Z,2.20
2018-12-30T12:53:34.099Z,1.70
2018-12-30T12:56:23.192Z,1.80
2018-12-30T12:59:12.379Z,2.43
2018-12-30T13:02:01.466Z,2.10
2018-12-30T13:04:50.623Z,2.70
2018-12-30T13:07:40.033Z,2.70
2018-12-30T13:10:29.111Z,2.67
2018-12-30T13:13:18.276Z,3.00
2018-12-30T13:16:07.344Z,2.30
2018-12-30T13:18:56.393Z,2.77
2018-12-30T13:21:45.465Z,2.17
2018-12-30T13:24:39.932Z,2.97
2018-12-30T13:27:25.407Z,2.50
2018-12-30T13:30:14.541Z,2.40
2018-12-30T13:33:04.047Z,2.50
2018-12-30T13:35:53.131Z,2.43
2018-12-30T13:38:42.533Z,2.53
2018-12-30T13:41:31.624Z,3.50
2018-12-30T13:44:20.702Z,2.07
2018-12-30T13:47:09.843Z,2.20
2018-12-30T13:49:51.830Z,2.90
2018-12-30T13:52:40.912Z,2.00
2018-12-30T13:55:29.988Z,2.73
2018-12-30T13:58:19.103Z,2.50
2018-12-30T14:01:08.120Z,2.30
2018-12-30T14:03:57.572Z,3.63
2018-12-30T14:06:46.626Z,2.53
2018-12-30T14:09:36.060Z,2.40
2018-12-30T14:12:25.263Z,2.47
2018-12-30T14:15:14.303Z,2.33
2018-12-30T14:18:03.403Z,2.40
2018-12-30T14:20:52.471Z,2.20
2018-12-30T14:23:41.585Z,2.07
2018-12-30T14:26:30.641Z,2.20
2018-12-30T14:29:19.814Z,2.33
2018-12-30T14:32:08.862Z,2.80
2018-12-30T14:34:57.949Z,2.23
2018-12-30T14:37:47.023Z,2.70
2018-12-30T14:40:36.268Z,2.70
2018-12-30T14:43:25.287Z,2.20
2018-12-30T14:46:14.589Z,2.20
2018-12-30T14:49:03.687Z,3.93
2018-12-30T14:51:45.848Z,2.70
2018-12-30T14:54:34.924Z,3.23
2018-12-30T14:57:24.001Z,2.70
2018-12-30T15:00:13.098Z,2.60
2018-12-30T15:03:02.179Z,2.60
2018-12-30T15:05:51.259Z,2.63
2018-12-30T15:08:40.443Z,2.80
2018-12-30T15:11:32.332Z,3.23
2018-12-30T15:14:21.371Z,3.90
2018-12-30T15:17:10.430Z,4.47
2018-12-30T15:19:59.613Z,3.50
2018-12-30T15:22:48.854Z,3.60
2018-12-30T15:25:38.068Z,4.00
2018-12-30T15:28:27.118Z,3.10
2018-12-30T15:31:16.248Z,3.43
2018-12-30T15:34:05.383Z,3.77
2018-12-30T15:36:54.460Z,3.60
2018-12-30T15:39:43.593Z,3.58
2018-12-30T15:42:32.653Z,3.40
2018-12-30T15:45:21.737Z,3.40
2018-12-30T15:48:10.822Z,2.70
2018-12-30T15:50:52.834Z,3.50
2018-12-30T15:53:41.890Z,3.57
2018-12-30T15:56:30.971Z,2.97
2018-12-30T15:59:20.056Z,2.70
2018-12-30T16:02:09.453Z,3.95
2018-12-30T16:04:58.581Z,3.90
2018-12-30T16:07:47.660Z,4.20
2018-12-30T16:10:36.705Z,4.10
2018-12-30T16:13:25.779Z,3.77
2018-12-30T16:16:14.876Z,4.37
2018-12-30T16:19:04.051Z,3.30
2018-12-30T16:21:53.121Z,4.60
2018-12-30T16:24:42.235Z,3.50
2018-12-30T16:27:31.287Z,4.70
2018-12-30T16:30:20.333Z,4.33
2018-12-30T16:33:09.399Z,5.00
2018-12-30T16:35:58.473Z,5.80
2018-12-30T16:38:47.529Z,4.80
2018-12-30T16:41:36.655Z,4.50
2018-12-30T16:44:25.784Z,4.85
2018-12-30T16:47:14.874Z,5.92
2018-12-30T16:53:12.036Z,4.65
2018-12-30T16:56:01.129Z,4.75
2018-12-30T16:58:50.336Z,4.50
2018-12-30T17:01:39.484Z,4.62
2018-12-30T17:04:28.557Z,3.43
2018-12-30T17:07:17.720Z,5.17
2018-12-30T17:13:23.893Z,4.80
2018-12-30T17:16:32.325Z,5.50
2018-12-30T17:19:21.424Z,4.92
2018-12-30T17:22:10.678Z,4.40
2018-12-30T17:24:59.771Z,5.35
2018-12-30T17:27:48.843Z,6.15
2018-12-30T17:30:37.923Z,4.95
2018-12-30T17:33:27.010Z,6.62
2018-12-30T17:36:16.084Z,5.50
2018-12-30T17:38:45.902Z,5.33
2018-12-30T17:41:35.002Z,5.53
2018-12-30T17:44:24.054Z,6.97
2018-12-30T17:50:41.504Z,6.78
2018-12-30T17:53:23.716Z,6.65
2018-12-30T17:56:12.899Z,7.20
2018-12-30T17:59:01.984Z,7.62
2018-12-30T18:01:51.067Z,7.58
2018-12-30T18:04:40.181Z,6.67
2018-12-30T18:07:29.249Z,7.10
2018-12-30T18:10:18.343Z,6.83
2018-12-30T18:13:07.425Z,7.60
2018-12-30T18:15:56.552Z,7.20
2018-12-30T18:18:45.660Z,8.25
2018-12-30T18:21:34.727Z,7.60
2018-12-30T18:24:04.575Z,8.13
2018-12-30T18:26:53.672Z,8.38
2018-12-30T18:29:42.751Z,7.83
2018-12-30T18:32:31.840Z,7.70
2018-12-30T18:35:20.907Z,8.03
2018-12-30T18:38:10.008Z,8.40
2018-12-30T18:40:59.086Z,8.50
2018-12-30T18:43:48.222Z,8.50
2018-12-30T18:46:37.343Z,7.80
2018-12-30T18:49:26.399Z,8.58
2018-12-30T18:52:08.321Z,8.38
2018-12-30T18:54:57.476Z,7.92
2018-12-30T18:57:46.552Z,9.95
2018-12-30T19:00:35.618Z,9.30
2018-12-30T19:03:24.735Z,9.23
2018-12-30T19:06:13.850Z,9.23
2018-12-30T19:14:33.760Z,8.30
2018-12-30T19:17:22.874Z,10.60
2018-12-30T19:20:11.995Z,8.53
2018-12-30T19:23:01.142Z,8.58
2018-12-30T19:25:50.288Z,6.72
2018-12-30T19:28:39.329Z,8.73
2018-12-30T19:31:28.429Z,9.35
2018-12-30T19:34:17.495Z,7.15
2018-12-30T19:37:06.602Z,7.75
2018-12-30T19:39:55.696Z,9.47
2018-12-30T19:42:44.826Z,7.30
2018-12-30T19:45:33.924Z,9.20
2018-12-30T19:48:23.106Z,7.65
2018-12-30T19:51:12.297Z,7.25
2018-12-30T19:53:55.078Z,8.60
2018-12-30T19:56:44.186Z,7.83
2018-12-30T19:59:33.393Z,7.60
2018-12-30T20:02:35.166Z,8.57
2018-12-30T20:05:13.346Z,6.80
2018-12-30T20:08:02.409Z,9.30
2018-12-30T20:10:51.525Z,8.30
2018-12-30T20:13:40.647Z,9.50
2018-12-30T20:16:29.757Z,8.70
2018-12-30T20:19:18.847Z,9.00
2018-12-30T20:22:07.969Z,10.60
2018-12-30T20:24:57.042Z,11.10
2018-12-30T20:27:46.451Z,9.45
2018-12-30T20:30:35.833Z,8.33
2018-12-30T20:33:24.952Z,8.33
2018-12-30T20:36:14.122Z,10.33
2018-12-30T20:41:58.723Z,17.97
2018-12-30T20:44:47.827Z,12.00
2018-12-30T20:47:36.982Z,16.30
2018-12-30T20:50:26.118Z,11.10
2018-12-30T20:53:07.897Z,9.43
2018-12-30T20:55:57.009Z,11.65
2018-12-30T20:58:46.073Z,9.67
2018-12-30T21:01:35.172Z,10.47
2018-12-30T21:04:24.385Z,10.40
2018-12-30T21:07:13.739Z,9.68
2018-12-30T21:10:02.905Z,12.40
2018-12-30T21:12:52.056Z,9.80
2018-12-30T21:15:41.199Z,9.43
2018-12-30T21:18:30.263Z,9.00
2018-12-30T21:21:19.350Z,8.70
2018-12-30T21:24:08.438Z,8.60
2018-12-30T21:26:57.510Z,9.00
2018-12-30T21:29:46.890Z,11.07
2018-12-30T21:32:35.995Z,11.07
2018-12-30T21:35:25.080Z,9.37
2018-12-30T21:38:14.148Z,9.60
2018-12-30T21:44:12.797Z,8.50
2018-12-30T21:47:01.852Z,9.63
2018-12-30T21:49:50.930Z,9.03
2018-12-30T21:52:40.154Z,9.00
2018-12-30T21:55:22.256Z,8.70
2018-12-30T21:58:11.305Z,9.17
2018-12-30T22:01:00.411Z,7.33
2018-12-30T22:03:49.474Z,7.97
2018-12-30T22:06:38.589Z,7.60
2018-12-30T22:09:27.747Z,7.90
2018-12-30T22:12:16.781Z,8.70
2018-12-30T22:15:26.698Z,6.92
2018-12-30T22:18:15.747Z,7.30
2018-12-30T22:21:05.193Z,6.95
2018-12-30T22:23:54.380Z,8.28
2018-12-30T22:26:24.190Z,6.80
2018-12-30T22:29:13.282Z,7.90
2018-12-30T22:32:02.360Z,7.70
2018-12-30T22:34:51.479Z,8.20
2018-12-30T22:37:40.557Z,7.65
2018-12-30T22:40:29.905Z,8.18
2018-12-30T22:43:18.965Z,8.30
2018-12-30T22:46:26.982Z,6.87
2018-12-30T22:49:16.320Z,8.27
2018-12-30T22:52:05.386Z,9.13
2018-12-30T22:54:47.006Z,7.70
2018-12-30T22:57:36.106Z,7.43
2018-12-30T23:03:53.547Z,7.45
2018-12-30T23:06:42.701Z,8.13
2018-12-30T23:09:31.771Z,7.10
2018-12-30T23:12:20.991Z,6.57
2018-12-30T23:15:10.071Z,6.53
2018-12-30T23:17:59.158Z,6.17
2018-12-30T23:20:48.248Z,7.97
2018-12-30T23:23:37.321Z,7.25
2018-12-30T23:26:26.391Z,7.90
2018-12-30T23:29:29.773Z,7.27
2018-12-30T23:32:06.441Z,8.97
2018-12-30T23:34:55.545Z,6.73
2018-12-30T23:37:44.651Z,7.20
2018-12-30T23:40:14.473Z,8.23
2018-12-30T23:43:03.548Z,7.47
2018-12-30T23:45:52.635Z,7.87
2018-12-30T23:48:41.811Z,7.63
2018-12-30T23:51:30.893Z,7.65
2018-12-30T23:54:12.664Z,6.57
2018-12-30T23:57:01.744Z,8.17
2018-12-30T23:59:50.816Z,6.90
